Buoy 41910

sailwx.info

Track history (hours):
 
Tides and Currents Weather Stations Pressure Air Temp Water Temp Dewpoint Dewpoint Depression Visibility Wind Speed Wind Dir Waves Ship Positions

Drifting buoy 41910

Last reported at 2014-Aug-30 20:50 UTC. Time now 2014-Aug-31 06:39 UTC.
Position N 33°47' W 052°54'.

Water temperature 27.0 ° C

Date/timePositionNaut miles runAvg speedWind from/ knotsBaromVisibWave heightAir tempDewpointWater temp
2014-Aug-30 20:50N 33°47' W 052°54'0 4.7 27.0
2014-Aug-30 20:48N 33°48' W 052°54'1 3.2
2014-Aug-30 20:29N 33°48' W 052°55'0 0.0 27.0
2014-Aug-30 19:06N 33°48' W 052°55'0 1.0 27.0
2014-Aug-30 18:50N 33°48' W 052°55'0 2.8 27.0
2014-Aug-30 18:44N 33°48' W 052°55'1 0.1 27.0
2014-Aug-30 11:07N 33°48' W 052°56'0 0.0 26.9
2014-Aug-30 09:33N 33°48' W 052°56'0 0.6 26.9
2014-Aug-30 09:28N 33°48' W 052°56'0 6.7 26.9
2014-Aug-30 09:24N 33°48' W 052°55'0 0.0
2014-Aug-30 09:03N 33°48' W 052°55'1 0.8 26.9
2014-Aug-30 07:50N 33°49' W 052°55'5 9.9 26.9
2014-Aug-30 07:20N 33°54' W 052°55'0 0.0 26.9
2014-Aug-29 21:15N 33°54' W 052°55'0 8.3 27.0
2014-Aug-29 21:13N 33°54' W 052°55'0 0.0 27.0
2014-Aug-29 20:40N 33°54' W 052°55'113.5 27.0
2014-Aug-29 20:36N 33°55' W 052°56'0 0.0 27.0
2014-Aug-29 19:34N 33°55' W 052°56'0 0.0 27.0
2014-Aug-29 19:31N 33°55' W 052°56'1 1.5 27.0
2014-Aug-29 19:00N 33°55' W 052°57'2 0.2 27.0
2014-Aug-29 09:56N 33°57' W 052°58'0 6.2 27.0
2014-Aug-29 09:52N 33°57' W 052°57'1 1.6 27.0
2014-Aug-29 09:09N 33°58' W 052°58'0 0.0 27.0
2014-Aug-29 08:12N 33°58' W 052°58'0 0.1 27.0
2014-Aug-29 07:33N 33°58' W 052°58'4 0.4 27.0
2014-Aug-28 21:34N 34°02' W 053°01'0 0.0 27.2
2014-Aug-28 20:44N 34°02' W 053°01'0 0.3 27.1
2014-Aug-28 19:58N 34°01' W 053°01'2 3.2 27.2
2014-Aug-28 19:12N 34°03' W 052°59'0 0.0 27.2
2014-Aug-28 10:20N 34°03' W 052°59'1 9.4 26.9
2014-Aug-28 10:15N 34°04' W 052°59'0 0.0
2014-Aug-28 09:29N 34°04' W 052°59'1 5.9 26.9
2014-Aug-28 09:23N 34°04' W 052°59'0 0.0 26.9
2014-Aug-28 08:38N 34°04' W 052°59'1 0.9 26.9
2014-Aug-28 07:43N 34°05' W 052°59'220.2 26.9
2014-Aug-28 07:38N 34°06' W 053°01'0 0.0
2014-Aug-27 21:59N 34°06' W 053°01'0 0.0 27.0
2014-Aug-27 21:00N 34°06' W 053°01'0 0.2 27.0
2014-Aug-27 20:18N 34°06' W 053°01'4 4.3 27.0
2014-Aug-27 19:23N 34°10' W 053°00'0 0.0 27.1
2014-Aug-27 18:37N 34°10' W 053°00'0 0.0 27.1
2014-Aug-27 17:37N 34°10' W 053°00'0 0.0
2014-Aug-27 10:39N 34°10' W 053°00'0 0.0 26.8
2014-Aug-27 09:39N 34°10' W 053°00'0 3.1 26.9
2014-Aug-27 09:35N 34°10' W 053°00'116.2 26.9
2014-Aug-27 09:32N 34°11' W 053°01'0 0.0 26.9
2014-Aug-27 07:56N 34°11' W 053°01'110.2 26.9
2014-Aug-27 07:51N 34°10' W 053°01'1 2.3 26.9
2014-Aug-27 07:23N 34°10' W 053°02'0 0.0 26.9
2014-Aug-27 06:12N 34°10' W 053°02'0 0.0 26.9
2014-Aug-26 21:13N 34°10' W 053°02'3 8.3 27.0
2014-Aug-26 20:48N 34°14' W 053°03'0 0.0 27.0
2014-Aug-26 19:30N 34°14' W 053°03'0 0.0 27.0
2014-Aug-26 19:05N 34°14' W 053°03'0 0.0 27.0
2014-Aug-26 17:53N 34°14' W 053°03'0 0.0 27.0
2014-Aug-26 09:48N 34°14' W 053°03'0 3.6 26.8
2014-Aug-26 09:43N 34°14' W 053°03'0 1.7 26.8
2014-Aug-26 09:25N 34°14' W 053°04'0 0.0 26.8
2014-Aug-26 08:07N 34°14' W 053°04'0 0.6 26.8
2014-Aug-26 07:48N 34°14' W 053°04'1 0.1 26.8
2014-Aug-25 21:23N 34°13' W 053°04'0 0.0 27.0
2014-Aug-25 21:07N 34°13' W 053°04'3 1.8 27.0
2014-Aug-25 19:39N 34°15' W 053°06'0 0.0 27.1
2014-Aug-25 19:28N 34°15' W 053°06'0 0.0 27.1
2014-Aug-25 18:03N 34°15' W 053°06'0 0.0 27.0
2014-Aug-25 09:53N 34°15' W 053°06'0 5.6 26.7
2014-Aug-25 09:50N 34°15' W 053°06'0 0.0 26.7
2014-Aug-25 08:22N 34°15' W 053°06'1 8.6 26.7
2014-Aug-25 08:16N 34°15' W 053°07'1 0.4 26.7
2014-Aug-25 06:34N 34°16' W 053°06'0 0.0 26.7
2014-Aug-24 21:36N 34°16' W 053°06'0 0.2 26.8
2014-Aug-24 19:55N 34°16' W 053°05'591.3 26.8
2014-Aug-24 19:52N 34°20' W 053°08'0 0.0 26.8
2014-Aug-24 18:10N 34°20' W 053°08'0 0.0 26.8
2014-Aug-24 10:14N 34°20' W 053°08'0 0.0 27.0
2014-Aug-24 10:06N 34°20' W 053°08'0 0.0
2014-Aug-24 08:29N 34°20' W 053°08'1 0.7 27.0
2014-Aug-24 06:51N 34°21' W 053°09'327.6 27.1
2014-Aug-24 06:45N 34°21' W 053°12'0 0.0 27.1
2014-Aug-23 20:22N 34°21' W 053°12'010.8 27.4
2014-Aug-23 20:21N 34°21' W 053°12'0 0.0 27.4
2014-Aug-23 20:08N 34°21' W 053°12'1 0.7 27.4
2014-Aug-23 18:27N 34°22' W 053°11'5 0.6 27.4
2014-Aug-23 10:42N 34°26' W 053°13'110.6 27.4
2014-Aug-23 10:37N 34°25' W 053°14'0 0.0 27.4
2014-Aug-23 10:19N 34°25' W 053°14'0 0.0 27.4
2014-Aug-23 09:04N 34°25' W 053°14'0 0.8 27.4
2014-Aug-23 08:58N 34°25' W 053°14'0 0.0 27.4
2014-Aug-23 08:43N 34°25' W 053°14'1 4.8 27.4
2014-Aug-23 08:36N 34°24' W 053°14'0 0.0 27.4
2014-Aug-23 07:18N 34°24' W 053°14'0 0.0 27.4
2014-Aug-23 07:01N 34°24' W 053°14'3 0.2 27.4
2014-Aug-22 20:48N 34°25' W 053°11'0 0.0 27.6
2014-Aug-22 20:13N 34°25' W 053°11'0 0.0 27.6
2014-Aug-22 19:06N 34°25' W 053°11'0 0.7 27.6
2014-Aug-22 18:58N 34°25' W 053°11'0 0.0 27.6
2014-Aug-22 18:36N 34°25' W 053°11'4 0.5 27.6
2014-Aug-22 11:05N 34°29' W 053°14'0 0.0 27.4
2014-Aug-22 09:29N 34°29' W 053°14'0 4.5 27.4
2014-Aug-22 09:25N 34°29' W 053°14'0 0.7 27.4
2014-Aug-22 08:49N 34°28' W 053°15'0 0.0 27.4
2014-Aug-22 07:49N 34°28' W 053°15'0 1.5 27.5
2014-Aug-22 07:47N 34°28' W 053°15'3 4.8 27.5
2014-Aug-22 07:09N 34°28' W 053°11'0 0.0 27.5
2014-Aug-21 21:05N 34°28' W 053°11'0 0.0 27.6
2014-Aug-21 20:29N 34°28' W 053°11'1 0.9 27.7
2014-Aug-21 19:28N 34°29' W 053°10'0 0.0 27.6
2014-Aug-21 18:47N 34°29' W 053°10'3 0.4 27.6
2014-Aug-21 09:54N 34°30' W 053°14'0 1.2 27.4
2014-Aug-21 09:50N 34°30' W 053°14'1 0.9 27.4
2014-Aug-21 09:05N 34°30' W 053°14'0 0.1 27.4
2014-Aug-21 08:11N 34°30' W 053°14'0 0.5 27.4
2014-Aug-21 07:26N 34°29' W 053°14'2 0.2 27.5
2014-Aug-20 21:30N 34°30' W 053°12'   28.4
Track history (hours):
 
Tides and Currents Weather Stations Pressure Air Temp Water Temp Dewpoint Dewpoint Depression Visibility Wind Speed Wind Dir Waves Ship Positions

Drifting buoy 41910

Last reported at 2014-Aug-30 20:50 UTC. Time now 2014-Aug-31 06:39 UTC.
Position N 33°47' W 052°54'.

Water temperature 27.0 ° C

Date/timePositionNaut miles runAvg speedWind from/ knotsBaromVisibWave heightAir tempDewpointWater temp
2014-Aug-30 20:50N 33°47' W 052°54'0 4.7 27.0
2014-Aug-30 20:48N 33°48' W 052°54'1 3.2
2014-Aug-30 20:29N 33°48' W 052°55'0 0.0 27.0
2014-Aug-30 19:06N 33°48' W 052°55'0 1.0 27.0
2014-Aug-30 18:50N 33°48' W 052°55'0 2.8 27.0
2014-Aug-30 18:44N 33°48' W 052°55'1 0.1 27.0
2014-Aug-30 11:07N 33°48' W 052°56'0 0.0 26.9
2014-Aug-30 09:33N 33°48' W 052°56'0 0.6 26.9
2014-Aug-30 09:28N 33°48' W 052°56'0 6.7 26.9
2014-Aug-30 09:24N 33°48' W 052°55'0 0.0
2014-Aug-30 09:03N 33°48' W 052°55'1 0.8 26.9
2014-Aug-30 07:50N 33°49' W 052°55'5 9.9 26.9
2014-Aug-30 07:20N 33°54' W 052°55'0 0.0 26.9
2014-Aug-29 21:15N 33°54' W 052°55'0 8.3 27.0
2014-Aug-29 21:13N 33°54' W 052°55'0 0.0 27.0
2014-Aug-29 20:40N 33°54' W 052°55'113.5 27.0
2014-Aug-29 20:36N 33°55' W 052°56'0 0.0 27.0
2014-Aug-29 19:34N 33°55' W 052°56'0 0.0 27.0
2014-Aug-29 19:31N 33°55' W 052°56'1 1.5 27.0
2014-Aug-29 19:00N 33°55' W 052°57'2 0.2 27.0
2014-Aug-29 09:56N 33°57' W 052°58'0 6.2 27.0
2014-Aug-29 09:52N 33°57' W 052°57'1 1.6 27.0
2014-Aug-29 09:09N 33°58' W 052°58'0 0.0 27.0
2014-Aug-29 08:12N 33°58' W 052°58'0 0.1 27.0
2014-Aug-29 07:33N 33°58' W 052°58'4 0.4 27.0
2014-Aug-28 21:34N 34°02' W 053°01'0 0.0 27.2
2014-Aug-28 20:44N 34°02' W 053°01'0 0.3 27.1
2014-Aug-28 19:58N 34°01' W 053°01'2 3.2 27.2
2014-Aug-28 19:12N 34°03' W 052°59'0 0.0 27.2
2014-Aug-28 10:20N 34°03' W 052°59'1 9.4 26.9
2014-Aug-28 10:15N 34°04' W 052°59'0 0.0
2014-Aug-28 09:29N 34°04' W 052°59'1 5.9 26.9
2014-Aug-28 09:23N 34°04' W 052°59'0 0.0 26.9
2014-Aug-28 08:38N 34°04' W 052°59'1 0.9 26.9
2014-Aug-28 07:43N 34°05' W 052°59'220.2 26.9
2014-Aug-28 07:38N 34°06' W 053°01'0 0.0
2014-Aug-27 21:59N 34°06' W 053°01'0 0.0 27.0
2014-Aug-27 21:00N 34°06' W 053°01'0 0.2 27.0
2014-Aug-27 20:18N 34°06' W 053°01'4 4.3 27.0
2014-Aug-27 19:23N 34°10' W 053°00'0 0.0 27.1
2014-Aug-27 18:37N 34°10' W 053°00'0 0.0 27.1
2014-Aug-27 17:37N 34°10' W 053°00'0 0.0
2014-Aug-27 10:39N 34°10' W 053°00'0 0.0 26.8
2014-Aug-27 09:39N 34°10' W 053°00'0 3.1 26.9
2014-Aug-27 09:35N 34°10' W 053°00'116.2 26.9
2014-Aug-27 09:32N 34°11' W 053°01'0 0.0 26.9
2014-Aug-27 07:56N 34°11' W 053°01'110.2 26.9
2014-Aug-27 07:51N 34°10' W 053°01'1 2.3 26.9
2014-Aug-27 07:23N 34°10' W 053°02'0 0.0 26.9
2014-Aug-27 06:12N 34°10' W 053°02'0 0.0 26.9
2014-Aug-26 21:13N 34°10' W 053°02'3 8.3 27.0
2014-Aug-26 20:48N 34°14' W 053°03'0 0.0 27.0
2014-Aug-26 19:30N 34°14' W 053°03'0 0.0 27.0
2014-Aug-26 19:05N 34°14' W 053°03'0 0.0 27.0
2014-Aug-26 17:53N 34°14' W 053°03'0 0.0 27.0
2014-Aug-26 09:48N 34°14' W 053°03'0 3.6 26.8
2014-Aug-26 09:43N 34°14' W 053°03'0 1.7 26.8
2014-Aug-26 09:25N 34°14' W 053°04'0 0.0 26.8
2014-Aug-26 08:07N 34°14' W 053°04'0 0.6 26.8
2014-Aug-26 07:48N 34°14' W 053°04'1 0.1 26.8
2014-Aug-25 21:23N 34°13' W 053°04'0 0.0 27.0
2014-Aug-25 21:07N 34°13' W 053°04'3 1.8 27.0
2014-Aug-25 19:39N 34°15' W 053°06'0 0.0 27.1
2014-Aug-25 19:28N 34°15' W 053°06'0 0.0 27.1
2014-Aug-25 18:03N 34°15' W 053°06'0 0.0 27.0
2014-Aug-25 09:53N 34°15' W 053°06'0 5.6 26.7
2014-Aug-25 09:50N 34°15' W 053°06'0 0.0 26.7
2014-Aug-25 08:22N 34°15' W 053°06'1 8.6 26.7
2014-Aug-25 08:16N 34°15' W 053°07'1 0.4 26.7
2014-Aug-25 06:34N 34°16' W 053°06'0 0.0 26.7
2014-Aug-24 21:36N 34°16' W 053°06'0 0.2 26.8
2014-Aug-24 19:55N 34°16' W 053°05'591.3 26.8
2014-Aug-24 19:52N 34°20' W 053°08'0 0.0 26.8
2014-Aug-24 18:10N 34°20' W 053°08'0 0.0 26.8
2014-Aug-24 10:14N 34°20' W 053°08'0 0.0 27.0
2014-Aug-24 10:06N 34°20' W 053°08'0 0.0
2014-Aug-24 08:29N 34°20' W 053°08'1 0.7 27.0
2014-Aug-24 06:51N 34°21' W 053°09'327.6 27.1
2014-Aug-24 06:45N 34°21' W 053°12'0 0.0 27.1
2014-Aug-23 20:22N 34°21' W 053°12'010.8 27.4
2014-Aug-23 20:21N 34°21' W 053°12'0 0.0 27.4
2014-Aug-23 20:08N 34°21' W 053°12'1 0.7 27.4
2014-Aug-23 18:27N 34°22' W 053°11'5 0.6 27.4
2014-Aug-23 10:42N 34°26' W 053°13'110.6 27.4
2014-Aug-23 10:37N 34°25' W 053°14'0 0.0 27.4
2014-Aug-23 10:19N 34°25' W 053°14'0 0.0 27.4
2014-Aug-23 09:04N 34°25' W 053°14'0 0.8 27.4
2014-Aug-23 08:58N 34°25' W 053°14'0 0.0 27.4
2014-Aug-23 08:43N 34°25' W 053°14'1 4.8 27.4
2014-Aug-23 08:36N 34°24' W 053°14'0 0.0 27.4
2014-Aug-23 07:18N 34°24' W 053°14'0 0.0 27.4
2014-Aug-23 07:01N 34°24' W 053°14'3 0.2 27.4
2014-Aug-22 20:48N 34°25' W 053°11'0 0.0 27.6
2014-Aug-22 20:13N 34°25' W 053°11'0 0.0 27.6
2014-Aug-22 19:06N 34°25' W 053°11'0 0.7 27.6
2014-Aug-22 18:58N 34°25' W 053°11'0 0.0 27.6
2014-Aug-22 18:36N 34°25' W 053°11'4 0.5 27.6
2014-Aug-22 11:05N 34°29' W 053°14'0 0.0 27.4
2014-Aug-22 09:29N 34°29' W 053°14'0 4.5 27.4
2014-Aug-22 09:25N 34°29' W 053°14'0 0.7 27.4
2014-Aug-22 08:49N 34°28' W 053°15'0 0.0 27.4
2014-Aug-22 07:49N 34°28' W 053°15'0 1.5 27.5
2014-Aug-22 07:47N 34°28' W 053°15'3 4.8 27.5
2014-Aug-22 07:09N 34°28' W 053°11'0 0.0 27.5
2014-Aug-21 21:05N 34°28' W 053°11'0 0.0 27.6
2014-Aug-21 20:29N 34°28' W 053°11'1 0.9 27.7
2014-Aug-21 19:28N 34°29' W 053°10'0 0.0 27.6
2014-Aug-21 18:47N 34°29' W 053°10'3 0.4 27.6
2014-Aug-21 09:54N 34°30' W 053°14'0 1.2 27.4
2014-Aug-21 09:50N 34°30' W 053°14'1 0.9 27.4
2014-Aug-21 09:05N 34°30' W 053°14'0 0.1 27.4
2014-Aug-21 08:11N 34°30' W 053°14'0 0.5 27.4
2014-Aug-21 07:26N 34°29' W 053°14'2 0.2 27.5
2014-Aug-20 21:30N 34°30' W 053°12'   28.4

Dump ship's entire track history